Time;durP1;ratioP1;P1;durP2;ratioP2;P2;SDS_P1;SDS_P2;PMS_P1;PMS_P2;Temp;Humidity;BMP_temperature;BMP_pressure;BME280_temperature;BME280_humidity;BME280_pressure;Samples;Min_cycle;Max_cycle;Signal;HPM_P1;HPM_P2
2024/04/22 00:01:50;;;;;;;;;;;;;;;18.40;33.06;98203.16;5412322;26;20375;-80
2024/04/22 00:04:16;;;;;;;;;;;;;;;17.53;34.25;98219.03;5395655;26;19949;-80
2024/04/22 00:06:45;;;;;;;;;;;;;;;18.25;33.45;98207.88;5388367;26;19929;-79
2024/04/22 00:09:12;;;;;;;;;;;;;;;18.16;33.42;98206.66;5407919;26;19961;-80
2024/04/22 00:11:38;;;;;;;;;;;;;;;18.16;33.91;98213.00;5387791;26;19936;-80
2024/04/22 00:14:04;;;;;;;;;;;;;;;17.69;33.92;98219.53;5389729;26;20395;-80
2024/04/22 00:16:30;;;;;;;;;;;;;;;17.24;34.91;98214.44;5386521;26;19929;-80
2024/04/22 00:18:56;;;;;;;;;;;;;;;18.37;32.88;98207.53;5392466;26;19929;-80
2024/04/22 00:21:22;;;;;;;;;;;;;;;16.59;36.31;98212.25;5391011;26;20047;-80
2024/04/22 00:23:48;;;;;;;;;;;;;;;16.00;37.58;98211.56;5381460;26;19959;-80
2024/04/22 00:26:15;;;;;;;;;;;;;;;15.67;38.06;98206.78;5397776;26;20354;-79
2024/04/22 00:28:41;;;;;;;;;;;;;;;16.63;36.47;98211.50;5400573;26;20369;-80
2024/04/22 00:31:07;;;;;;;;;;;;;;;16.17;37.22;98205.44;5388648;26;20372;-79
2024/04/22 00:33:33;;;;;;;;;;;;;;;16.11;37.22;98198.63;5393557;26;19945;-80
2024/04/22 00:36:00;;;;;;;;;;;;;;;16.01;37.05;98205.63;5395439;26;19984;-80
2024/04/22 00:38:26;;;;;;;;;;;;;;;16.32;36.83;98207.19;5387146;26;19937;-80
2024/04/22 00:40:53;;;;;;;;;;;;;;;15.59;38.26;98197.56;5394932;26;20346;-80
2024/04/22 00:43:19;;;;;;;;;;;;;;;17.28;35.03;98199.41;5384479;26;19936;-80
2024/04/22 00:45:45;;;;;;;;;;;;;;;17.78;34.62;98196.97;5384199;26;20380;-79
2024/04/22 00:48:14;;;;;;;;;;;;;;;20.50;29.86;98190.22;5391679;26;20321;-79
2024/04/22 00:50:41;;;;;;;;;;;;;;;18.41;32.63;98199.97;5393502;26;19935;-80
2024/04/22 00:53:07;;;;;;;;;;;;;;;20.64;29.51;98192.94;5386851;26;19929;-79
2024/04/22 00:55:33;;;;;;;;;;;;;;;22.40;27.18;98182.06;5391410;26;19930;-79
2024/04/22 00:58:02;;;;;;;;;;;;;;;22.81;26.30;98186.69;5380589;26;19982;-79
2024/04/22 01:00:28;;;;;;;;;;;;;;;22.60;26.73;98183.00;5379955;26;19951;-79
2024/04/22 01:02:54;;;;;;;;;;;;;;;21.69;27.23;98192.47;5386480;26;19962;-80
2024/04/22 01:05:20;;;;;;;;;;;;;;;21.78;27.41;98192.75;5381847;26;19958;-79
2024/04/22 01:07:46;;;;;;;;;;;;;;;21.13;28.82;98188.22;5384465;26;20360;-79
2024/04/22 01:10:13;;;;;;;;;;;;;;;20.80;28.89;98180.44;5382018;26;19938;-79
2024/04/22 01:12:39;;;;;;;;;;;;;;;20.23;29.99;98182.81;5383367;26;20009;-80
2024/04/22 01:15:05;;;;;;;;;;;;;;;18.60;32.36;98184.97;5392097;26;19946;-79
2024/04/22 01:17:38;;;;;;;;;;;;;;;15.55;37.66;98191.19;5383530;26;19929;-80
2024/04/22 01:20:05;;;;;;;;;;;;;;;16.35;36.75;98193.41;5380885;26;19937;-79
2024/04/22 01:22:31;;;;;;;;;;;;;;;18.75;32.84;98185.78;5390224;26;19929;-79
2024/04/22 01:24:59;;;;;;;;;;;;;;;21.50;28.52;98173.50;5398065;26;19937;-79
2024/04/22 01:27:26;;;;;;;;;;;;;;;22.02;27.06;98181.34;5413490;26;19936;-79
2024/04/22 01:29:52;;;;;;;;;;;;;;;17.65;33.62;98181.81;5398995;26;19940;-79
2024/04/22 01:32:18;;;;;;;;;;;;;;;18.32;32.55;98177.31;5400670;26;19936;-80
2024/04/22 01:34:44;;;;;;;;;;;;;;;19.22;31.37;98183.44;5385492;26;19944;-79
2024/04/22 01:37:10;;;;;;;;;;;;;;;17.34;34.28;98190.72;5403594;26;19966;-80
2024/04/22 01:39:36;;;;;;;;;;;;;;;17.38;33.95;98194.31;5383906;26;19936;-80
2024/04/22 01:42:03;;;;;;;;;;;;;;;19.08;31.67;98185.41;5387358;26;19929;-80
2024/04/22 01:44:29;;;;;;;;;;;;;;;20.77;29.58;98182.06;5396779;26;20264;-79
2024/04/22 01:46:55;;;;;;;;;;;;;;;21.91;27.39;98177.09;5390009;26;19962;-79
2024/04/22 01:49:21;;;;;;;;;;;;;;;21.25;27.90;98185.72;5391820;26;19962;-80
2024/04/22 01:51:47;;;;;;;;;;;;;;;21.13;28.54;98186.22;5394232;26;19929;-80
2024/04/22 01:54:14;;;;;;;;;;;;;;;21.11;27.91;98185.84;5384920;26;19943;-79
2024/04/22 01:56:40;;;;;;;;;;;;;;;18.80;31.41;98197.31;5398320;26;19929;-79
2024/04/22 01:59:06;;;;;;;;;;;;;;;19.64;30.66;98188.16;5391732;26;19937;-79
2024/04/22 02:01:32;;;;;;;;;;;;;;;19.14;31.01;98187.38;5394368;26;19938;-79
2024/04/22 02:03:58;;;;;;;;;;;;;;;20.41;29.70;98184.31;5366171;26;20262;-79
2024/04/22 02:06:24;;;;;;;;;;;;;;;19.89;30.24;98180.53;5381720;26;20268;-79
2024/04/22 02:08:50;;;;;;;;;;;;;;;21.13;28.69;98179.84;5384139;26;19940;-79
2024/04/22 02:11:16;;;;;;;;;;;;;;;21.05;28.42;98184.69;5387834;26;19929;-79
2024/04/22 02:13:42;;;;;;;;;;;;;;;19.30;30.96;98196.13;5396191;26;20327;-79
2024/04/22 02:16:08;;;;;;;;;;;;;;;19.42;30.68;98186.59;5418508;26;19929;-79
2024/04/22 02:18:34;;;;;;;;;;;;;;;16.52;35.63;98192.03;5385279;26;19930;-79
2024/04/22 02:21:00;;;;;;;;;;;;;;;13.80;40.86;98200.69;5405368;26;19998;-80
2024/04/22 02:23:26;;;;;;;;;;;;;;;13.36;42.41;98202.09;5389922;26;20005;-79
2024/04/22 02:25:52;;;;;;;;;;;;;;;13.20;42.91;98204.09;5367801;26;19951;-80
2024/04/22 02:28:18;;;;;;;;;;;;;;;13.30;42.72;98198.84;5409225;26;19940;-79
2024/04/22 02:30:44;;;;;;;;;;;;;;;15.07;39.72;98195.59;5384484;26;19939;-79
2024/04/22 02:33:10;;;;;;;;;;;;;;;15.48;37.98;98187.53;5389287;26;20359;-79
2024/04/22 02:35:36;;;;;;;;;;;;;;;17.14;34.99;98185.44;5387129;26;19933;-79
2024/04/22 02:38:03;;;;;;;;;;;;;;;16.35;35.96;98192.59;5363154;26;20267;-79
2024/04/22 02:40:29;;;;;;;;;;;;;;;16.62;35.63;98190.53;5383954;26;19930;-79
2024/04/22 02:42:55;;;;;;;;;;;;;;;18.02;33.83;98192.72;5357961;26;19935;-79
2024/04/22 02:45:21;;;;;;;;;;;;;;;16.47;35.88;98201.44;5381926;26;19934;-79
2024/04/22 02:47:47;;;;;;;;;;;;;;;17.22;34.20;98200.16;5383497;26;20436;-79
2024/04/22 02:50:13;;;;;;;;;;;;;;;16.28;36.28;98200.81;5418174;26;19929;-79
2024/04/22 02:52:39;;;;;;;;;;;;;;;15.54;37.51;98197.13;5391767;26;19972;-79
2024/04/22 02:55:06;;;;;;;;;;;;;;;16.13;36.26;98204.59;5383250;26;20361;-79
2024/04/22 02:57:32;;;;;;;;;;;;;;;16.85;35.08;98208.56;5384605;26;19930;-79
2024/04/22 02:59:58;;;;;;;;;;;;;;;18.08;33.12;98200.28;5417832;26;19961;-79
2024/04/22 03:02:24;;;;;;;;;;;;;;;18.12;33.38;98197.50;5388087;26;19937;-79
2024/04/22 03:04:50;;;;;;;;;;;;;;;18.48;32.66;98197.25;5385270;26;20007;-79
2024/04/22 03:07:16;;;;;;;;;;;;;;;20.86;28.97;98190.00;5389918;26;20368;-78
2024/04/22 03:09:44;;;;;;;;;;;;;;;21.82;27.61;98190.75;5396074;26;20280;-79
2024/04/22 03:12:10;;;;;;;;;;;;;;;22.38;26.50;98181.66;5392745;26;19933;-79
2024/04/22 03:14:36;;;;;;;;;;;;;;;20.03;29.24;98196.38;5400592;26;19945;-79
2024/04/22 03:17:02;;;;;;;;;;;;;;;19.85;29.59;98187.31;5395176;26;19964;-79
2024/04/22 03:19:28;;;;;;;;;;;;;;;21.83;27.18;98190.31;5388185;26;19929;-79
2024/04/22 03:21:55;;;;;;;;;;;;;;;22.15;27.08;98187.16;5385089;26;19929;-79
2024/04/22 03:24:21;;;;;;;;;;;;;;;23.40;25.20;98181.34;5386622;26;19944;-79
2024/04/22 03:26:47;;;;;;;;;;;;;;;24.22;24.08;98182.22;5391554;26;20262;-79
2024/04/22 03:29:13;;;;;;;;;;;;;;;24.77;23.50;98181.41;5392062;26;19931;-79
2024/04/22 03:31:39;;;;;;;;;;;;;;;25.21;23.14;98185.56;5386309;26;19938;-79
2024/04/22 03:34:05;;;;;;;;;;;;;;;25.61;22.49;98186.19;5391294;26;20101;-79
2024/04/22 03:36:31;;;;;;;;;;;;;;;25.17;22.96;98190.50;5397160;26;19937;-80
2024/04/22 03:38:57;;;;;;;;;;;;;;;25.43;22.78;98197.88;5396493;26;19966;-79
2024/04/22 03:41:23;;;;;;;;;;;;;;;25.29;22.82;98199.03;5391837;26;20288;-79
2024/04/22 03:43:49;;;;;;;;;;;;;;;24.80;22.75;98196.59;5400135;26;19983;-79
2024/04/22 03:51:45;;;;;;;;;;;;;;;21.04;26.48;98212.97;5401128;26;20006;-79
2024/04/22 03:54:11;;;;;;;;;;;;;;;20.30;28.25;98219.81;5398224;26;19997;-79
2024/04/22 03:56:37;;;;;;;;;;;;;;;19.65;28.06;98217.59;5394656;26;19929;-79
2024/04/22 03:59:03;;;;;;;;;;;;;;;19.29;28.93;98227.16;5385757;26;19940;-79
2024/04/22 04:01:29;;;;;;;;;;;;;;;20.29;27.57;98225.78;5395589;26;20420;-79
2024/04/22 04:03:56;;;;;;;;;;;;;;;20.74;26.92;98230.34;5386354;26;19937;-79
2024/04/22 04:06:23;;;;;;;;;;;;;;;22.26;25.34;98221.41;5413694;26;19936;-80
2024/04/22 04:08:49;;;;;;;;;;;;;;;22.96;24.06;98219.66;5382795;26;19929;-80
2024/04/22 04:11:16;;;;;;;;;;;;;;;22.97;24.28;98228.84;5413504;26;20003;-80
2024/04/22 04:13:45;;;;;;;;;;;;;;;23.57;23.42;98234.28;5380882;26;20330;-80
2024/04/22 04:16:11;;;;;;;;;;;;;;;23.76;23.25;98233.53;5406634;26;19930;-78
2024/04/22 04:18:40;;;;;;;;;;;;;;;23.35;23.58;98236.69;5395257;26;20365;-79
2024/04/22 04:21:06;;;;;;;;;;;;;;;23.49;23.76;98232.03;5354589;26;19937;-80
2024/04/22 04:23:33;;;;;;;;;;;;;;;23.66;23.34;98231.75;5381892;26;19942;-79
2024/04/22 04:25:59;;;;;;;;;;;;;;;23.64;23.21;98236.97;5386258;26;19937;-79
2024/04/22 04:28:25;;;;;;;;;;;;;;;23.60;23.15;98239.03;5381633;26;19930;-80
2024/04/22 04:30:54;;;;;;;;;;;;;;;23.15;23.67;98238.56;5386939;26;19944;-79
2024/04/22 04:33:21;;;;;;;;;;;;;;;22.91;23.84;98244.53;5397690;26;19997;-79
2024/04/22 04:35:56;;;;;;;;;;;;;;;22.10;24.95;98251.16;5407437;26;19936;-80
2024/04/22 04:38:22;;;;;;;;;;;;;;;21.74;25.38;98248.72;5388362;26;20365;-79
2024/04/22 04:40:48;;;;;;;;;;;;;;;22.31;24.74;98253.72;5398408;26;20340;-79
2024/04/22 04:43:14;;;;;;;;;;;;;;;22.85;24.23;98251.84;5387767;26;19941;-79
2024/04/22 04:45:40;;;;;;;;;;;;;;;22.58;24.04;98252.56;5398530;26;20304;-80
2024/04/22 04:48:06;;;;;;;;;;;;;;;22.65;24.34;98260.09;5388487;26;19979;-79
2024/04/22 04:50:33;;;;;;;;;;;;;;;22.90;23.95;98256.94;5388336;26;19965;-80
2024/04/22 04:52:59;;;;;;;;;;;;;;;22.74;24.04;98259.56;5414436;26;19945;-79
2024/04/22 04:55:25;;;;;;;;;;;;;;;22.47;24.10;98260.31;5385969;26;19929;-80
2024/04/22 04:57:51;;;;;;;;;;;;;;;23.10;23.51;98263.47;5395842;26;20674;-78
2024/04/22 05:00:18;;;;;;;;;;;;;;;23.14;23.30;98264.19;5394402;26;19979;-79
2024/04/22 05:02:44;;;;;;;;;;;;;;;22.77;24.07;98264.34;5386099;26;19930;-79
2024/04/22 05:05:10;;;;;;;;;;;;;;;23.26;23.58;98272.03;5403722;26;19929;-79
2024/04/22 05:07:36;;;;;;;;;;;;;;;23.58;23.19;98272.31;5401587;26;20249;-78
2024/04/22 05:10:03;;;;;;;;;;;;;;;24.18;22.94;98264.88;5398757;26;20304;-78
2024/04/22 05:12:29;;;;;;;;;;;;;;;24.05;22.61;98267.47;5415443;26;19960;-79
2024/04/22 05:14:55;;;;;;;;;;;;;;;23.86;23.09;98280.25;5388946;26;20375;-80
2024/04/22 05:17:21;;;;;;;;;;;;;;;23.84;22.77;98285.50;5384534;26;19946;-79
2024/04/22 05:19:47;;;;;;;;;;;;;;;24.26;22.65;98280.31;5388100;26;19930;-79
2024/04/22 05:22:13;;;;;;;;;;;;;;;24.36;22.40;98282.16;5388549;26;19966;-79
2024/04/22 05:24:39;;;;;;;;;;;;;;;24.42;22.44;98284.00;5391848;26;19941;-79
2024/04/22 05:27:05;;;;;;;;;;;;;;;24.53;22.46;98292.19;5391446;26;19957;-79
2024/04/22 05:29:32;;;;;;;;;;;;;;;24.50;22.24;98290.28;5384780;26;19944;-79
2024/04/22 05:31:58;;;;;;;;;;;;;;;24.41;22.55;98292.88;5394056;26;19944;-79
2024/04/22 05:37:08;;;;;;;;;;;;;;;24.20;22.80;98301.69;5384430;26;19936;-79
2024/04/22 05:39:35;;;;;;;;;;;;;;;23.98;23.17;98299.25;5393339;26;19929;-79
2024/04/22 05:42:01;;;;;;;;;;;;;;;23.75;23.43;98304.88;5351503;26;19937;-79
2024/04/22 05:44:27;;;;;;;;;;;;;;;23.25;24.13;98301.25;5382944;26;19937;-79
2024/04/22 05:46:53;;;;;;;;;;;;;;;22.65;24.86;98311.28;5384538;26;19953;-78
2024/04/22 05:49:21;;;;;;;;;;;;;;;22.04;24.93;98306.75;5396236;26;19945;-79
2024/04/22 05:51:47;;;;;;;;;;;;;;;22.32;25.06;98314.03;5384668;26;19929;-78
2024/04/22 05:54:13;;;;;;;;;;;;;;;22.42;24.67;98315.94;5400154;26;20261;-78
2024/04/22 05:56:39;;;;;;;;;;;;;;;22.81;24.68;98313.47;5399839;26;19987;-79
2024/04/22 05:59:08;;;;;;;;;;;;;;;23.32;23.94;98315.94;5399651;26;20386;-79
2024/04/22 06:01:34;;;;;;;;;;;;;;;23.47;24.33;98319.34;5384464;26;19965;-79
2024/04/22 06:04:00;;;;;;;;;;;;;;;24.16;23.93;98314.97;5385355;26;19937;-79
2024/04/22 06:06:26;;;;;;;;;;;;;;;24.09;23.62;98320.72;5391466;26;19929;-78
2024/04/22 06:08:52;;;;;;;;;;;;;;;23.23;24.36;98323.28;5386358;26;20174;-78
2024/04/22 06:11:18;;;;;;;;;;;;;;;23.47;24.16;98329.75;5353587;26;19958;-78
2024/04/22 06:13:44;;;;;;;;;;;;;;;23.15;24.73;98328.19;5385454;26;19934;-79
2024/04/22 06:16:10;;;;;;;;;;;;;;;22.85;24.90;98339.41;5386173;26;20335;-79
2024/04/22 06:18:36;;;;;;;;;;;;;;;23.39;24.16;98331.88;5384519;26;19938;-79
2024/04/22 06:21:02;;;;;;;;;;;;;;;22.69;25.03;98344.81;5396004;26;19935;-79
2024/04/22 06:23:28;;;;;;;;;;;;;;;22.65;24.65;98347.66;5415529;26;19929;-78
2024/04/22 06:26:04;;;;;;;;;;;;;;;23.02;24.55;98334.78;5388124;26;19929;-79
2024/04/22 06:28:30;;;;;;;;;;;;;;;22.09;25.47;98345.44;5384700;26;19937;-78
2024/04/22 06:30:56;;;;;;;;;;;;;;;22.11;25.95;98342.22;5398680;26;19998;-78
2024/04/22 06:33:22;;;;;;;;;;;;;;;23.06;24.64;98347.53;5408301;26;20226;-79
2024/04/22 06:35:48;;;;;;;;;;;;;;;23.22;24.71;98349.72;5383544;26;19966;-78
2024/04/22 06:38:14;;;;;;;;;;;;;;;23.33;24.52;98345.56;5384802;26;19979;-78
2024/04/22 06:40:41;;;;;;;;;;;;;;;23.28;24.39;98348.03;5390199;26;19956;-79
2024/04/22 06:43:07;;;;;;;;;;;;;;;23.00;24.37;98359.63;5383595;26;20000;-78
2024/04/22 06:45:33;;;;;;;;;;;;;;;23.71;23.72;98354.59;5404360;26;19929;-79
2024/04/22 06:47:59;;;;;;;;;;;;;;;23.77;23.69;98357.72;5386804;26;19930;-78
2024/04/22 06:50:25;;;;;;;;;;;;;;;24.08;23.09;98356.41;5387759;26;19929;-78
2024/04/22 06:52:51;;;;;;;;;;;;;;;24.13;23.26;98369.16;5389787;26;19929;-78
2024/04/22 06:55:17;;;;;;;;;;;;;;;23.30;23.60;98356.81;5389989;26;19930;-78
2024/04/22 06:57:43;;;;;;;;;;;;;;;23.15;24.26;98363.84;5391516;26;19937;-79
2024/04/22 07:00:10;;;;;;;;;;;;;;;22.99;24.47;98369.22;5383444;26;19938;-79
2024/04/22 07:02:36;;;;;;;;;;;;;;;23.32;23.73;98365.56;5391205;26;19957;-79
2024/04/22 07:05:02;;;;;;;;;;;;;;;23.96;23.78;98369.00;5385921;26;19944;-78
2024/04/22 07:07:28;;;;;;;;;;;;;;;23.56;23.10;98364.44;5383370;26;20006;-78
2024/04/22 07:09:54;;;;;;;;;;;;;;;24.71;23.74;98372.03;5391086;26;19936;-79
2024/04/22 07:12:20;;;;;;;;;;;;;;;25.74;22.54;98373.44;5383768;26;19930;-79
2024/04/22 07:14:46;;;;;;;;;;;;;;;26.20;22.23;98371.53;5383469;26;19961;-79
2024/04/22 07:17:13;;;;;;;;;;;;;;;25.42;21.68;98373.38;5390977;26;19936;-78
2024/04/22 07:19:40;;;;;;;;;;;;;;;23.76;24.39;98379.34;5385699;26;19949;-79
2024/04/22 07:22:06;;;;;;;;;;;;;;;23.23;24.12;98374.50;5384326;26;19930;-79
2024/04/22 07:24:32;;;;;;;;;;;;;;;23.08;24.27;98391.94;5394609;26;19957;-79
2024/04/22 07:26:58;;;;;;;;;;;;;;;22.84;23.88;98390.22;5390991;26;19937;-78
2024/04/22 07:29:25;;;;;;;;;;;;;;;23.47;24.42;98389.41;5384374;26;20387;-78
2024/04/22 07:31:51;;;;;;;;;;;;;;;23.61;23.96;98392.00;5409137;26;19937;-78
2024/04/22 07:34:17;;;;;;;;;;;;;;;22.88;24.81;98400.16;5415840;26;19929;-78
2024/04/22 07:36:48;;;;;;;;;;;;;;;22.83;24.95;98394.22;5403862;26;19937;-79
2024/04/22 07:39:20;;;;;;;;;;;;;;;21.97;25.54;98396.28;5417823;26;19940;-78
2024/04/22 07:41:46;;;;;;;;;;;;;;;22.32;25.23;98395.97;5402138;26;19936;-78
2024/04/22 07:44:12;;;;;;;;;;;;;;;22.73;25.16;98403.56;5390908;26;19936;-78
2024/04/22 07:46:41;;;;;;;;;;;;;;;22.63;25.17;98405.25;5383207;26;19929;-78
2024/04/22 07:49:08;;;;;;;;;;;;;;;22.22;25.41;98408.03;5382735;26;19929;-78
2024/04/22 07:51:36;;;;;;;;;;;;;;;22.01;25.48;98408.22;5383188;26;19929;-78
2024/04/22 07:54:03;;;;;;;;;;;;;;;23.38;24.14;98403.94;5392957;26;19929;-78
2024/04/22 07:56:29;;;;;;;;;;;;;;;23.64;24.49;98402.34;5417494;26;19937;-78
2024/04/22 07:58:56;;;;;;;;;;;;;;;23.34;24.59;98417.22;5385797;26;19929;-79
2024/04/22 08:01:22;;;;;;;;;;;;;;;23.25;23.94;98416.91;5404507;26;19944;-78
2024/04/22 08:03:48;;;;;;;;;;;;;;;22.23;25.11;98422.81;5410975;26;19929;-78
2024/04/22 08:06:18;;;;;;;;;;;;;;;21.16;28.65;98417.16;5404510;26;19994;-79
2024/04/22 08:08:44;;;;;;;;;;;;;;;22.00;25.78;98423.41;5387310;26;20265;-79
2024/04/22 08:11:10;;;;;;;;;;;;;;;20.87;26.91;98423.19;5403600;26;19936;-79
2024/04/22 08:13:36;;;;;;;;;;;;;;;19.36;32.08;98421.28;5351979;26;19930;-78
2024/04/22 08:16:02;;;;;;;;;;;;;;;19.74;28.65;98426.91;5382556;26;19938;-79
2024/04/22 08:18:28;;;;;;;;;;;;;;;22.91;25.71;98423.75;5382864;26;19929;-79
2024/04/22 08:20:54;;;;;;;;;;;;;;;24.25;23.31;98417.03;5383925;26;19936;-79
2024/04/22 08:23:21;;;;;;;;;;;;;;;24.33;22.69;98417.69;5396590;26;19979;-79
2024/04/22 08:25:47;;;;;;;;;;;;;;;22.33;24.79;98419.13;5415261;26;20006;-79
2024/04/22 08:28:13;;;;;;;;;;;;;;;22.97;25.20;98419.25;5411624;26;20265;-78
2024/04/22 08:30:40;;;;;;;;;;;;;;;23.23;23.81;98421.34;5390767;26;20052;-79
2024/04/22 08:33:06;;;;;;;;;;;;;;;23.77;23.77;98419.41;5398807;26;19940;-78
2024/04/22 08:35:32;;;;;;;;;;;;;;;22.84;23.93;98424.63;5384556;26;19953;-78
2024/04/22 08:37:58;;;;;;;;;;;;;;;23.70;23.21;98420.31;5389080;26;19937;-79
2024/04/22 08:40:24;;;;;;;;;;;;;;;23.56;23.79;98428.13;5382678;26;19929;-78
2024/04/22 08:42:50;;;;;;;;;;;;;;;23.69;23.84;98421.50;5382943;26;20258;-78
2024/04/22 08:45:18;;;;;;;;;;;;;;;23.73;24.05;98419.47;5408806;26;19998;-79
2024/04/22 08:47:44;;;;;;;;;;;;;;;24.11;23.58;98417.25;5388790;26;19930;-79
2024/04/22 08:50:10;;;;;;;;;;;;;;;24.88;22.94;98414.31;5386993;26;19944;-78
2024/04/22 08:52:37;;;;;;;;;;;;;;;24.66;23.75;98419.50;5417842;26;19929;-79
2024/04/22 08:55:03;;;;;;;;;;;;;;;24.48;23.34;98421.84;5416495;26;19935;-79
2024/04/22 08:57:29;;;;;;;;;;;;;;;25.54;22.89;98416.91;5402533;26;19930;-78
2024/04/22 08:59:55;;;;;;;;;;;;;;;25.19;23.37;98418.47;5394841;26;19929;-79
2024/04/22 09:02:21;;;;;;;;;;;;;;;25.62;22.29;98418.34;5408592;26;19936;-78
2024/04/22 09:04:47;;;;;;;;;;;;;;;26.68;22.22;98408.84;5381992;26;19936;-79
2024/04/22 09:07:17;;;;;;;;;;;;;;;26.77;20.71;98418.75;5386476;26;19930;-78
2024/04/22 09:09:44;;;;;;;;;;;;;;;25.82;19.88;98424.72;5417526;26;20381;-79
2024/04/22 09:12:14;;;;;;;;;;;;;;;25.41;21.39;98425.22;5389815;26;19945;-78
2024/04/22 09:14:40;;;;;;;;;;;;;;;23.24;23.46;98453.75;5381833;26;19933;-78
2024/04/22 09:17:06;;;;;;;;;;;;;;;21.41;26.97;98442.16;5417180;26;19929;-79
2024/04/22 09:19:32;;;;;;;;;;;;;;;21.82;25.50;98450.69;5405311;26;19999;-78
2024/04/22 09:21:59;;;;;;;;;;;;;;;23.24;23.81;98454.53;5381994;26;20438;-78
2024/04/22 09:24:25;;;;;;;;;;;;;;;24.36;23.25;98447.72;5381881;26;19941;-78
2024/04/22 09:26:51;;;;;;;;;;;;;;;24.81;22.54;98440.50;5381805;26;19937;-78
2024/04/22 09:29:18;;;;;;;;;;;;;;;24.88;22.27;98448.00;5406442;26;19937;-78
2024/04/22 09:31:46;;;;;;;;;;;;;;;24.77;22.42;98448.19;5381563;26;19936;-78
2024/04/22 09:34:13;;;;;;;;;;;;;;;24.23;22.42;98450.34;5350363;26;20331;-78
2024/04/22 09:36:40;;;;;;;;;;;;;;;24.19;22.81;98452.41;5393724;26;19945;-78
2024/04/22 09:39:10;;;;;;;;;;;;;;;25.26;22.37;98452.84;5416953;26;19940;-78
2024/04/22 09:41:37;;;;;;;;;;;;;;;24.24;24.66;98449.13;5417981;26;20264;-78
2024/04/22 09:44:05;;;;;;;;;;;;;;;24.78;22.52;98444.19;5420533;26;20265;-78
2024/04/22 09:46:32;;;;;;;;;;;;;;;25.57;22.01;98447.00;5419146;26;19961;-79
2024/04/22 09:48:59;;;;;;;;;;;;;;;26.35;21.68;98441.09;5420234;26;19965;-78
2024/04/22 09:51:26;;;;;;;;;;;;;;;25.77;21.09;98447.72;5420744;26;20260;-78
2024/04/22 09:53:52;;;;;;;;;;;;;;;25.30;22.08;98452.75;5404167;26;19929;-78
2024/04/22 09:56:21;;;;;;;;;;;;;;;24.64;21.72;98445.19;5384885;26;19937;-78
2024/04/22 09:58:47;;;;;;;;;;;;;;;24.69;21.67;98438.31;5413326;26;19957;-78
2024/04/22 10:01:13;;;;;;;;;;;;;;;25.71;21.98;98444.66;5420329;26;19929;-79
2024/04/22 10:03:39;;;;;;;;;;;;;;;24.76;22.17;98441.00;5418984;26;19929;-78
2024/04/22 10:06:06;;;;;;;;;;;;;;;24.49;22.06;98445.88;5419992;26;20522;-78
2024/04/22 10:08:33;;;;;;;;;;;;;;;24.55;22.15;98442.16;5409730;26;19958;-79
2024/04/22 10:11:08;;;;;;;;;;;;;;;24.34;21.35;98448.13;5405019;26;19940;-79
2024/04/22 10:13:35;;;;;;;;;;;;;;;25.04;21.13;98443.25;5401876;26;19928;-79
2024/04/22 10:16:02;;;;;;;;;;;;;;;25.18;21.51;98442.94;5403128;26;19937;-79
2024/04/22 10:18:28;;;;;;;;;;;;;;;26.49;20.92;98442.78;5396734;26;19940;-79
2024/04/22 10:21:04;;;;;;;;;;;;;;;26.38;19.97;98443.06;5415416;26;19929;-79
2024/04/22 10:23:30;;;;;;;;;;;;;;;27.01;19.71;98442.59;5379990;26;19941;-79
2024/04/22 10:25:56;;;;;;;;;;;;;;;25.82;19.67;98448.00;5411533;26;20373;-79
2024/04/22 10:28:22;;;;;;;;;;;;;;;26.04;21.11;98437.81;5417034;26;20260;-79
2024/04/22 10:30:49;;;;;;;;;;;;;;;26.26;19.65;98445.78;5419228;26;19983;-78
2024/04/22 10:33:15;;;;;;;;;;;;;;;26.19;19.74;98441.13;5413956;26;19929;-79
2024/04/22 10:35:41;;;;;;;;;;;;;;;25.10;21.08;98444.34;5401491;26;19929;-78
2024/04/22 10:38:07;;;;;;;;;;;;;;;24.96;21.11;98439.00;5410906;26;19928;-79
2024/04/22 10:40:33;;;;;;;;;;;;;;;25.24;21.22;98438.44;5419007;26;20020;-79
2024/04/22 10:42:59;;;;;;;;;;;;;;;24.91;20.66;98439.50;5418576;26;19945;-79
2024/04/22 10:45:25;;;;;;;;;;;;;;;24.83;20.46;98440.09;5413105;26;19929;-78
2024/04/22 10:47:52;;;;;;;;;;;;;;;25.16;19.65;98442.59;5414340;26;20382;-79
2024/04/22 10:50:19;;;;;;;;;;;;;;;25.37;19.80;98439.34;5409459;26;19929;-78
2024/04/22 10:52:46;;;;;;;;;;;;;;;26.07;19.26;98439.75;5395187;26;19936;-79
2024/04/22 10:55:12;;;;;;;;;;;;;;;26.78;19.48;98445.66;5415299;26;19936;-79
2024/04/22 10:57:39;;;;;;;;;;;;;;;26.13;19.14;98439.28;5418789;26;19929;-79
2024/04/22 11:00:06;;;;;;;;;;;;;;;25.84;20.31;98439.13;5418675;26;19975;-79
2024/04/22 11:02:32;;;;;;;;;;;;;;;26.60;19.26;98444.09;5415850;26;19974;-79
2024/04/22 11:04:59;;;;;;;;;;;;;;;26.68;18.82;98437.03;5417908;26;19936;-79
2024/04/22 11:07:28;;;;;;;;;;;;;;;27.04;18.58;98444.53;5409791;26;20392;-79
2024/04/22 11:09:55;;;;;;;;;;;;;;;27.18;18.70;98441.31;5413992;26;19936;-79
2024/04/22 11:12:22;;;;;;;;;;;;;;;26.26;19.42;98448.59;5418486;26;19936;-78
2024/04/22 11:14:48;;;;;;;;;;;;;;;25.83;19.45;98448.81;5418627;26;20001;-79
2024/04/22 11:17:21;;;;;;;;;;;;;;;24.78;20.70;98455.41;5417144;26;19957;-78
2024/04/22 11:19:47;;;;;;;;;;;;;;;25.62;19.89;98450.09;5414825;26;19929;-78
2024/04/22 11:22:13;;;;;;;;;;;;;;;26.51;19.08;98445.97;5386998;26;19929;-79
2024/04/22 11:24:39;;;;;;;;;;;;;;;27.33;19.56;98443.25;5417188;26;20019;-79
2024/04/22 11:27:05;;;;;;;;;;;;;;;28.19;18.84;98441.47;5410587;26;19930;-79
2024/04/22 11:29:31;;;;;;;;;;;;;;;27.14;19.53;98447.03;5418065;26;19929;-79
2024/04/22 11:31:57;;;;;;;;;;;;;;;26.40;18.61;98440.59;5408366;26;19937;-78
2024/04/22 11:34:24;;;;;;;;;;;;;;;26.19;18.16;98445.94;5383003;26;19998;-79
2024/04/22 11:36:54;;;;;;;;;;;;;;;26.74;18.35;98434.47;5387634;26;20303;-79
2024/04/22 11:39:21;;;;;;;;;;;;;;;27.00;17.52;98433.34;5352377;26;19937;-79
2024/04/22 11:41:47;;;;;;;;;;;;;;;27.31;18.09;98433.66;5383288;26;19998;-79
2024/04/22 11:44:13;;;;;;;;;;;;;;;26.24;18.26;98436.97;5383271;26;20261;-79
2024/04/22 11:46:39;;;;;;;;;;;;;;;26.32;18.99;98444.84;5383124;26;19962;-79
2024/04/22 11:49:06;;;;;;;;;;;;;;;26.51;18.26;98446.72;5383282;26;20295;-79
2024/04/22 11:51:32;;;;;;;;;;;;;;;26.36;18.37;98442.72;5352321;26;19933;-79
2024/04/22 11:53:58;;;;;;;;;;;;;;;26.10;18.46;98443.75;5376502;26;19937;-79
2024/04/22 11:56:29;;;;;;;;;;;;;;;25.44;19.27;98446.84;5387452;26;20264;-79
2024/04/22 11:58:57;;;;;;;;;;;;;;;26.13;18.62;98442.88;5418446;26;20280;-79
2024/04/22 12:01:23;;;;;;;;;;;;;;;25.98;18.68;98433.16;5387223;26;19929;-79
2024/04/22 12:03:49;;;;;;;;;;;;;;;26.82;18.69;98443.53;5399223;26;19929;-79
2024/04/22 12:06:15;;;;;;;;;;;;;;;26.88;17.94;98436.13;5382912;26;19929;-79
2024/04/22 12:08:41;;;;;;;;;;;;;;;26.67;18.10;98434.66;5409235;26;19940;-79
2024/04/22 12:11:08;;;;;;;;;;;;;;;27.84;18.38;98443.38;5384094;26;20365;-79
2024/04/22 12:13:34;;;;;;;;;;;;;;;28.26;16.51;98433.56;5382287;26;20368;-79
2024/04/22 12:16:00;;;;;;;;;;;;;;;27.62;17.32;98428.34;5384741;26;20373;-79
2024/04/22 12:18:26;;;;;;;;;;;;;;;27.29;17.75;98427.69;5382890;26;20376;-79
2024/04/22 12:20:52;;;;;;;;;;;;;;;27.99;17.11;98430.41;5352105;26;19953;-79
2024/04/22 12:23:18;;;;;;;;;;;;;;;27.89;17.02;98429.47;5385435;26;19937;-79
2024/04/22 12:25:44;;;;;;;;;;;;;;;27.10;17.68;98428.66;5363251;26;19935;-79
2024/04/22 12:28:12;;;;;;;;;;;;;;;27.52;17.83;98421.78;5390139;26;19933;-79
2024/04/22 12:30:38;;;;;;;;;;;;;;;27.10;17.26;98426.63;5382620;26;19957;-79
2024/04/22 12:33:04;;;;;;;;;;;;;;;26.66;17.22;98422.59;5384637;26;20263;-79
2024/04/22 12:35:31;;;;;;;;;;;;;;;26.39;18.01;98418.50;5383801;26;20292;-79
2024/04/22 12:37:57;;;;;;;;;;;;;;;26.63;17.10;98420.66;5395426;26;19937;-79
2024/04/22 12:40:23;;;;;;;;;;;;;;;26.40;16.53;98418.06;5412075;26;19933;-79
2024/04/22 12:42:49;;;;;;;;;;;;;;;27.44;15.93;98411.19;5392409;26;19929;-79
2024/04/22 12:45:15;;;;;;;;;;;;;;;27.60;17.24;98414.69;5387735;26;20023;-79
2024/04/22 12:53:16;;;;;;;;;;;;;;;26.20;19.23;98417.38;5385768;26;19948;-79
2024/04/22 12:55:42;;;;;;;;;;;;;;;25.93;18.56;98422.44;5382227;26;19929;-79
2024/04/22 12:58:08;;;;;;;;;;;;;;;25.11;18.55;98411.41;5408068;26;19929;-78